createdAt,value
2022-12-19T00:01:34.797Z,101519.13
2022-12-19T00:04:07.684Z,101521.91
2022-12-19T00:06:36.972Z,101532.16
2022-12-19T00:09:04.841Z,101519.47
2022-12-19T00:11:32.391Z,101521.25
2022-12-19T00:14:00.148Z,101505.75
2022-12-19T00:16:29.458Z,101506.63
2022-12-19T00:19:00.767Z,101499.25
2022-12-19T00:21:34.963Z,101501.75
2022-12-19T00:24:09.844Z,101501.16
2022-12-19T00:26:49.709Z,101485.91
2022-12-19T00:29:16.445Z,101478.81
2022-12-19T00:31:44.688Z,101482.53
2022-12-19T00:34:14.499Z,101485.38
2022-12-19T00:36:41.091Z,101494.81
2022-12-19T00:39:11.850Z,101493.06
2022-12-19T00:41:42.112Z,101479.97
2022-12-19T00:44:13.309Z,101480.34
2022-12-19T00:46:41.416Z,101477.59
2022-12-19T00:49:09.693Z,101479.13
2022-12-19T00:51:37.870Z,101472.91
2022-12-19T00:54:10.330Z,101469.09
2022-12-19T00:56:38.337Z,101470.34
2022-12-19T00:59:07.200Z,101469.78
2022-12-19T01:01:36.789Z,101473.34
2022-12-19T01:06:52.956Z,101476.59
2022-12-19T01:09:22.590Z,101470.47
2022-12-19T01:12:08.104Z,101461.81
2022-12-19T01:14:35.644Z,101475.44
2022-12-19T01:17:03.691Z,101460.09
2022-12-19T01:19:30.374Z,101475.31
2022-12-19T01:21:57.037Z,101472.41
2022-12-19T01:24:24.561Z,101473.00
2022-12-19T01:26:51.346Z,101468.50
2022-12-19T01:29:17.957Z,101473.75
2022-12-19T01:31:44.577Z,101479.47
2022-12-19T01:34:11.415Z,101466.28
2022-12-19T01:36:39.830Z,101463.78
2022-12-19T01:39:07.627Z,101463.25
2022-12-19T01:41:34.554Z,101459.09
2022-12-19T01:44:05.351Z,101461.34
2022-12-19T01:46:45.905Z,101462.88
2022-12-19T01:49:31.421Z,101453.63
2022-12-19T01:52:02.813Z,101444.75
2022-12-19T01:54:33.517Z,101442.31
2022-12-19T01:57:02.494Z,101445.97
2022-12-19T01:59:34.218Z,101446.25
2022-12-19T02:02:10.323Z,101447.72
2022-12-19T02:04:40.342Z,101440.16
2022-12-19T02:07:16.095Z,101436.00
2022-12-19T02:09:50.302Z,101440.59
2022-12-19T02:12:33.671Z,101443.00
2022-12-19T02:15:02.937Z,101441.84
2022-12-19T02:17:54.769Z,101442.88
2022-12-19T02:20:47.273Z,101437.13
2022-12-19T02:23:47.988Z,101437.28
2022-12-19T02:26:57.298Z,101429.81
2022-12-19T02:29:50.926Z,101422.63
2022-12-19T02:32:25.333Z,101412.09
2022-12-19T02:35:01.195Z,101416.72
2022-12-19T02:37:39.067Z,101414.88
2022-12-19T02:40:12.766Z,101411.06
2022-12-19T02:42:46.959Z,101420.84
2022-12-19T02:45:21.559Z,101425.03
2022-12-19T02:47:57.523Z,101426.41
2022-12-19T02:50:26.127Z,101419.03
2022-12-19T02:52:52.850Z,101416.75
2022-12-19T02:55:24.623Z,101415.00
2022-12-19T02:58:02.168Z,101423.13
2022-12-19T03:00:29.711Z,101429.88
2022-12-19T03:03:00.807Z,101435.53
2022-12-19T03:05:51.585Z,101426.47
2022-12-19T03:08:37.902Z,101418.63
2022-12-19T03:11:10.810Z,101422.94
2022-12-19T03:13:56.423Z,101425.25
2022-12-19T03:16:24.935Z,101422.53
2022-12-19T03:18:53.690Z,101420.44
2022-12-19T03:21:29.279Z,101419.84
2022-12-19T03:23:58.577Z,101416.72
2022-12-19T03:26:32.067Z,101421.78
2022-12-19T03:29:06.661Z,101420.97
2022-12-19T03:31:34.900Z,101421.13
2022-12-19T03:34:08.563Z,101422.88
2022-12-19T03:36:43.165Z,101414.59
2022-12-19T03:39:12.353Z,101418.91
2022-12-19T03:41:59.406Z,101422.31
2022-12-19T03:44:28.731Z,101410.09
2022-12-19T03:47:04.615Z,101417.88
2022-12-19T03:49:31.991Z,101416.22
2022-12-19T03:52:07.305Z,101420.53
2022-12-19T03:54:40.272Z,101418.47
2022-12-19T03:57:14.162Z,101419.13
2022-12-19T03:59:50.792Z,101415.00
2022-12-19T04:02:20.603Z,101418.03
2022-12-19T04:04:54.311Z,101421.31
2022-12-19T04:07:22.812Z,101412.63
2022-12-19T04:09:51.221Z,101417.94
2022-12-19T04:12:21.663Z,101418.63
2022-12-19T04:14:49.690Z,101419.81
2022-12-19T04:17:41.288Z,101425.28
2022-12-19T04:20:14.630Z,101429.88
2022-12-19T04:22:46.005Z,101433.00
2022-12-19T04:25:16.674Z,101418.84
2022-12-19T04:27:50.607Z,101408.94
2022-12-19T04:30:18.444Z,101413.59
2022-12-19T04:32:46.411Z,101421.00
2022-12-19T04:35:13.905Z,101420.50
2022-12-19T04:37:40.695Z,101398.56
2022-12-19T04:40:08.631Z,101392.56
2022-12-19T04:42:35.399Z,101387.25
2022-12-19T04:45:02.609Z,101389.75
2022-12-19T04:47:30.367Z,101392.06
2022-12-19T04:49:57.039Z,101394.41
2022-12-19T04:52:23.981Z,101389.41
2022-12-19T04:54:51.043Z,101375.53
2022-12-19T04:57:17.846Z,101384.25
2022-12-19T04:59:44.492Z,101385.75
2022-12-19T05:02:11.268Z,101372.38
2022-12-19T05:04:38.552Z,101370.56
2022-12-19T05:07:05.207Z,101379.78
2022-12-19T05:09:31.837Z,101363.28
2022-12-19T05:11:58.516Z,101372.66
2022-12-19T05:14:25.381Z,101363.16
2022-12-19T05:16:57.237Z,101366.38
2022-12-19T05:19:27.128Z,101364.84
2022-12-19T05:21:54.038Z,101367.50
2022-12-19T05:24:20.637Z,101362.38
2022-12-19T05:26:49.086Z,101358.63
2022-12-19T05:29:17.144Z,101357.56
2022-12-19T05:31:44.200Z,101353.34
2022-12-19T05:34:11.091Z,101353.84
2022-12-19T05:36:37.765Z,101358.69
2022-12-19T05:39:04.480Z,101365.59
2022-12-19T05:41:31.247Z,101362.34
2022-12-19T05:43:58.092Z,101360.22
2022-12-19T05:46:25.891Z,101364.84
2022-12-19T05:48:53.217Z,101363.03
2022-12-19T05:51:21.517Z,101356.41
2022-12-19T05:53:48.368Z,101363.84
2022-12-19T05:56:18.244Z,101374.88
2022-12-19T05:58:45.860Z,101375.84
2022-12-19T06:01:16.981Z,101363.75
2022-12-19T06:03:44.372Z,101377.88
2022-12-19T06:06:14.789Z,101375.56
2022-12-19T06:08:41.634Z,101365.22
2022-12-19T06:11:10.952Z,101360.97
2022-12-19T06:13:38.735Z,101361.19
2022-12-19T06:16:16.551Z,101354.22
2022-12-19T06:18:46.058Z,101358.72
2022-12-19T06:21:21.476Z,101367.31
2022-12-19T06:23:48.761Z,101352.09
2022-12-19T06:26:19.967Z,101353.34
2022-12-19T06:28:48.818Z,101372.13
2022-12-19T06:31:16.235Z,101366.81
2022-12-19T06:33:43.051Z,101361.44
2022-12-19T06:36:25.530Z,101366.28
2022-12-19T06:38:52.470Z,101366.72
2022-12-19T06:41:38.760Z,101363.63
2022-12-19T06:44:10.587Z,101364.00
2022-12-19T06:46:39.740Z,101373.84
2022-12-19T06:49:07.094Z,101360.66
2022-12-19T06:51:34.122Z,101360.44
2022-12-19T06:54:01.143Z,101363.25
2022-12-19T06:56:28.128Z,101359.44
2022-12-19T06:58:55.112Z,101358.75
2022-12-19T07:01:43.846Z,101360.09
2022-12-19T07:04:15.447Z,101352.72
2022-12-19T07:06:48.727Z,101352.44
2022-12-19T07:09:18.216Z,101353.56
2022-12-19T07:11:45.185Z,101358.16
2022-12-19T07:14:11.769Z,101361.88
2022-12-19T07:16:38.916Z,101360.53
2022-12-19T07:19:07.889Z,101356.69
2022-12-19T07:21:36.683Z,101356.50
2022-12-19T07:24:04.256Z,101349.31
2022-12-19T07:26:32.024Z,101357.94
2022-12-19T07:29:00.326Z,101361.59
2022-12-19T07:31:26.949Z,101363.91
2022-12-19T07:33:54.105Z,101353.72
2022-12-19T07:36:20.950Z,101356.94
2022-12-19T07:38:47.645Z,101352.03
2022-12-19T07:41:14.366Z,101359.06
2022-12-19T07:43:41.267Z,101353.31
2022-12-19T07:46:09.633Z,101355.13
2022-12-19T07:48:36.708Z,101359.00
2022-12-19T07:51:04.872Z,101362.69
2022-12-19T07:53:31.856Z,101361.66
2022-12-19T07:55:58.658Z,101361.69
2022-12-19T07:58:25.885Z,101368.22
2022-12-19T08:01:02.847Z,101368.09
2022-12-19T08:03:29.747Z,101367.25
2022-12-19T08:06:01.558Z,101359.16
2022-12-19T08:08:29.904Z,101353.41
2022-12-19T08:11:22.437Z,101347.91
2022-12-19T08:13:49.820Z,101354.88
2022-12-19T08:16:16.545Z,101356.72
2022-12-19T08:18:43.485Z,101353.56
2022-12-19T08:21:11.417Z,101350.41
2022-12-19T08:23:41.203Z,101348.19
2022-12-19T08:26:11.923Z,101362.00
2022-12-19T08:28:38.805Z,101367.66
2022-12-19T08:31:17.059Z,101361.19
2022-12-19T08:33:44.414Z,101361.81
2022-12-19T08:36:13.259Z,101359.88
2022-12-19T08:38:40.391Z,101347.56
2022-12-19T08:41:07.836Z,101345.44
2022-12-19T08:43:35.960Z,101343.78
2022-12-19T08:46:02.670Z,101340.00
2022-12-19T08:48:30.932Z,101344.25
2022-12-19T08:50:59.509Z,101333.50
2022-12-19T08:53:28.524Z,101338.31
2022-12-19T08:56:00.003Z,101332.34
2022-12-19T08:58:28.698Z,101337.63
2022-12-19T09:01:05.395Z,101343.63
2022-12-19T09:03:42.809Z,101333.19
2022-12-19T09:06:20.254Z,101329.69
2022-12-19T09:08:47.366Z,101339.47
2022-12-19T09:11:16.516Z,101321.22
2022-12-19T09:13:44.814Z,101307.31
2022-12-19T09:16:21.893Z,101314.22
2022-12-19T09:18:51.826Z,101314.59
2022-12-19T09:21:21.053Z,101312.88
2022-12-19T09:24:03.690Z,101320.16
2022-12-19T09:26:35.365Z,101337.31
2022-12-19T09:29:03.731Z,101333.66
2022-12-19T09:31:38.386Z,101324.22
2022-12-19T09:34:05.069Z,101327.88
2022-12-19T09:36:32.068Z,101323.53
2022-12-19T09:38:59.137Z,101320.56
2022-12-19T09:41:47.528Z,101324.88
2022-12-19T09:44:39.156Z,101323.03
2022-12-19T09:47:16.656Z,101317.03
2022-12-19T09:49:46.295Z,101319.19
2022-12-19T09:52:18.470Z,101325.69
2022-12-19T09:55:17.563Z,101317.81
2022-12-19T09:57:56.041Z,101308.44
2022-12-19T10:00:23.450Z,101314.53
2022-12-19T10:03:05.039Z,101312.09
2022-12-19T10:06:26.884Z,101313.06
2022-12-19T10:09:26.291Z,101320.63
2022-12-19T10:12:45.022Z,101319.19
2022-12-19T10:15:02.951Z,101314.19
2022-12-19T10:17:41.807Z,101307.78
2022-12-19T10:20:23.157Z,101293.84
2022-12-19T10:23:14.960Z,101282.94
2022-12-19T10:26:03.503Z,101278.22
2022-12-19T10:28:55.969Z,101271.47
2022-12-19T10:31:33.995Z,101276.78
2022-12-19T10:34:05.818Z,101280.06
2022-12-19T10:37:19.766Z,101288.28
2022-12-19T10:39:59.173Z,101276.13
2022-12-19T10:42:51.344Z,101269.97
2022-12-19T10:45:23.518Z,101273.50
2022-12-19T10:47:57.417Z,101265.59
2022-12-19T10:50:27.305Z,101262.59
2022-12-19T10:53:08.034Z,101243.19
2022-12-19T10:55:52.238Z,101232.81
2022-12-19T10:58:33.912Z,101250.03
2022-12-19T11:01:10.661Z,101245.59
2022-12-19T11:03:39.012Z,101249.66
2022-12-19T11:06:07.015Z,101246.56
2022-12-19T11:08:37.210Z,101251.66
2022-12-19T11:12:26.286Z,101261.63
2022-12-19T11:18:28.831Z,101251.94
2022-12-19T11:23:48.307Z,101240.34
2022-12-19T11:29:29.802Z,101241.97
2022-12-19T11:29:34.220Z,101239.44
2022-12-19T11:30:39.454Z,101231.19
2022-12-19T11:30:46.603Z,101244.88
2022-12-19T11:32:33.928Z,101224.16
2022-12-19T11:34:22.605Z,101208.34
2022-12-19T11:36:58.364Z,101207.97
2022-12-19T11:39:44.616Z,101210.31
2022-12-19T11:42:25.421Z,101213.13
2022-12-19T11:45:13.213Z,101210.09
2022-12-19T11:47:58.416Z,101214.56
2022-12-19T11:50:29.947Z,101207.56
2022-12-19T11:53:04.865Z,101205.06
2022-12-19T11:55:43.999Z,101199.88
2022-12-19T11:58:12.087Z,101196.59
2022-12-19T12:00:49.697Z,101201.91
2022-12-19T12:03:49.519Z,101195.63
2022-12-19T12:06:33.991Z,101197.81
2022-12-19T12:12:48.318Z,101192.44
2022-12-19T12:19:27.962Z,101189.22
2022-12-19T12:25:32.964Z,101182.91
2022-12-19T12:31:05.879Z,101167.47
2022-12-19T12:31:31.686Z,101176.50
2022-12-19T12:32:00.735Z,101176.50
2022-12-19T12:32:03.186Z,101177.41
2022-12-19T12:35:46.564Z,101162.81
2022-12-19T12:41:09.787Z,101175.03
2022-12-19T12:43:48.620Z,101170.59
2022-12-19T12:46:47.003Z,101171.69
2022-12-19T12:49:29.221Z,101185.84
2022-12-19T12:51:58.061Z,101176.31
2022-12-19T12:54:33.141Z,101173.53
2022-12-19T12:57:00.675Z,101176.56
2022-12-19T12:59:31.399Z,101165.59
2022-12-19T13:02:23.891Z,101170.69
2022-12-19T13:05:13.420Z,101167.81
2022-12-19T13:07:41.906Z,101162.78
2022-12-19T13:10:23.409Z,101150.38
2022-12-19T13:13:17.427Z,101163.88
2022-12-19T13:15:46.807Z,101163.56
2022-12-19T13:18:37.877Z,101155.53
2022-12-19T13:21:07.575Z,101156.38
2022-12-19T13:23:37.342Z,101156.91
2022-12-19T13:26:05.146Z,101157.53
2022-12-19T13:28:34.714Z,101146.63
2022-12-19T13:31:20.399Z,101152.22
2022-12-19T13:33:53.913Z,101159.91
2022-12-19T13:39:47.603Z,101150.63
2022-12-19T13:40:04.366Z,101147.59
2022-12-19T13:42:47.000Z,101153.03
2022-12-19T13:45:17.051Z,101155.28
2022-12-19T13:47:45.106Z,101154.63
2022-12-19T13:50:35.758Z,101147.63
2022-12-19T13:53:02.673Z,101154.63
2022-12-19T13:55:29.855Z,101161.13
2022-12-19T13:57:57.102Z,101153.13
2022-12-19T14:00:35.973Z,101150.38
2022-12-19T14:03:03.360Z,101156.13
2022-12-19T14:06:17.831Z,101156.72
2022-12-19T14:08:25.549Z,101155.72
2022-12-19T14:11:36.635Z,101153.25
2022-12-19T14:14:16.331Z,101160.22
2022-12-19T14:16:46.657Z,101150.72
2022-12-19T14:19:22.738Z,101148.09
2022-12-19T14:22:08.687Z,101144.22
2022-12-19T14:24:36.409Z,101147.75
2022-12-19T14:28:18.146Z,101138.63
2022-12-19T14:30:29.765Z,101137.72
2022-12-19T14:33:46.085Z,101129.47
2022-12-19T14:36:06.541Z,101130.19
2022-12-19T14:39:20.965Z,101124.91
2022-12-19T14:41:46.953Z,101129.56
2022-12-19T14:52:34.940Z,101122.00
2022-12-19T14:53:52.639Z,101129.81
2022-12-19T14:54:15.112Z,101123.03
2022-12-19T14:54:29.350Z,101127.09
2022-12-19T14:59:35.041Z,101131.53
2022-12-19T15:02:07.921Z,101141.22
2022-12-19T15:04:59.787Z,101136.16
2022-12-19T15:07:32.003Z,101130.78
2022-12-19T15:11:07.399Z,101142.41
2022-12-19T15:14:49.362Z,101148.66
2022-12-19T15:16:07.177Z,101130.94
2022-12-19T15:18:34.361Z,101138.09
2022-12-19T15:21:04.595Z,101137.00
2022-12-19T15:23:34.795Z,101141.97
2022-12-19T15:26:06.546Z,101130.56
2022-12-19T15:28:43.570Z,101123.75
2022-12-19T15:31:36.633Z,101121.59
2022-12-19T15:34:48.386Z,101111.84
2022-12-19T15:37:15.641Z,101112.41
2022-12-19T15:39:47.809Z,101110.03
2022-12-19T15:42:20.285Z,101110.84
2022-12-19T15:44:48.537Z,101108.00
2022-12-19T15:47:21.535Z,101120.78
2022-12-19T15:49:48.629Z,101106.72
2022-12-19T15:52:18.661Z,101105.72
2022-12-19T15:54:48.520Z,101107.09
2022-12-19T15:57:38.440Z,101112.13
2022-12-19T16:00:18.462Z,101108.97
2022-12-19T16:05:33.563Z,101114.47
2022-12-19T16:08:00.311Z,101112.22
2022-12-19T16:10:27.118Z,101112.88
2022-12-19T16:12:57.768Z,101098.16
2022-12-19T16:15:29.569Z,101094.44
2022-12-19T16:17:58.566Z,101096.63
2022-12-19T16:20:28.382Z,101088.53
2022-12-19T16:22:56.042Z,101087.06
2022-12-19T16:25:27.306Z,101092.97
2022-12-19T16:27:56.818Z,101089.75
2022-12-19T16:30:28.121Z,101080.66
2022-12-19T16:32:55.393Z,101083.41
2022-12-19T16:35:40.637Z,101082.66
2022-12-19T16:38:10.977Z,101072.47
2022-12-19T16:40:37.993Z,101070.66
2022-12-19T16:43:24.149Z,101082.34
2022-12-19T16:45:51.191Z,101072.78
2022-12-19T16:48:26.475Z,101081.13
2022-12-19T16:50:53.817Z,101078.09
2022-12-19T16:53:21.028Z,101071.81
2022-12-19T16:55:48.767Z,101065.81
2022-12-19T16:58:20.685Z,101059.38
2022-12-19T17:00:47.955Z,101056.66
2022-12-19T17:03:41.436Z,101067.16
2022-12-19T17:06:12.714Z,101065.22
2022-12-19T17:08:39.460Z,101074.72
2022-12-19T17:11:11.627Z,101070.59
2022-12-19T17:13:38.590Z,101063.44
2022-12-19T17:16:05.665Z,101062.03
2022-12-19T17:18:35.657Z,101063.09
2022-12-19T17:21:03.158Z,101055.78
2022-12-19T17:23:32.958Z,101059.28
2022-12-19T17:26:00.771Z,101047.00
2022-12-19T17:28:28.730Z,101050.25
2022-12-19T17:30:59.483Z,101056.94
2022-12-19T17:33:34.906Z,101053.22
2022-12-19T17:36:03.244Z,101054.94
2022-12-19T17:38:30.163Z,101056.78
2022-12-19T17:40:57.385Z,101056.03
2022-12-19T17:43:24.139Z,101058.53
2022-12-19T17:45:51.785Z,101058.72
2022-12-19T17:48:31.625Z,101051.59
2022-12-19T17:50:58.655Z,101066.38
2022-12-19T17:53:25.873Z,101071.31
2022-12-19T17:55:52.887Z,101069.72
2022-12-19T17:58:19.690Z,101061.59
2022-12-19T18:00:49.201Z,101061.66
2022-12-19T18:03:21.592Z,101056.84
2022-12-19T18:05:50.177Z,101063.25
2022-12-19T18:08:24.939Z,101063.44
2022-12-19T18:10:52.869Z,101062.84
2022-12-19T18:13:20.483Z,101058.13
2022-12-19T18:15:47.543Z,101060.53
2022-12-19T18:18:16.266Z,101062.75
2022-12-19T18:20:44.486Z,101051.47
2022-12-19T18:23:16.867Z,101053.41
2022-12-19T18:25:44.193Z,101062.63
2022-12-19T18:28:11.187Z,101058.53
2022-12-19T18:30:38.568Z,101066.25
2022-12-19T18:33:06.204Z,101063.38
2022-12-19T18:35:36.577Z,101065.53
2022-12-19T18:38:07.150Z,101066.63
2022-12-19T18:40:34.589Z,101059.13
2022-12-19T18:43:01.323Z,101055.66
2022-12-19T18:45:34.187Z,101052.91
2022-12-19T18:48:02.347Z,101055.38
2022-12-19T18:50:29.610Z,101055.66
2022-12-19T18:52:57.119Z,101042.16
2022-12-19T18:55:27.561Z,101045.03
2022-12-19T18:57:55.557Z,101040.06
2022-12-19T19:00:25.423Z,101047.41
2022-12-19T19:02:56.124Z,101041.97
2022-12-19T19:05:26.803Z,101052.00
2022-12-19T19:07:53.834Z,101045.41
2022-12-19T19:10:25.451Z,101050.13
2022-12-19T19:13:09.988Z,101056.06
2022-12-19T19:15:42.662Z,101043.97
2022-12-19T19:18:09.473Z,101046.16
2022-12-19T19:20:41.730Z,101045.13
2022-12-19T19:23:13.137Z,101043.47
2022-12-19T19:25:41.225Z,101042.31
2022-12-19T19:28:08.570Z,101039.91
2022-12-19T19:30:38.183Z,101050.06
2022-12-19T19:33:11.603Z,101050.66
2022-12-19T19:35:40.087Z,101043.34
2022-12-19T19:38:08.984Z,101050.06
2022-12-19T19:40:38.846Z,101050.38
2022-12-19T19:43:06.938Z,101049.53
2022-12-19T19:45:39.505Z,101042.31
2022-12-19T19:48:09.862Z,101044.09
2022-12-19T19:50:36.912Z,101036.31
2022-12-19T19:53:04.306Z,101043.72
2022-12-19T19:55:31.735Z,101042.41
2022-12-19T19:57:58.740Z,101042.53
2022-12-19T20:00:25.729Z,101035.69
2022-12-19T20:02:52.721Z,101023.97
2022-12-19T20:05:19.781Z,101029.59
2022-12-19T20:07:46.444Z,101026.56
2022-12-19T20:10:13.304Z,101032.50
2022-12-19T20:12:41.351Z,101037.28
2022-12-19T20:15:08.474Z,101040.75
2022-12-19T20:17:38.539Z,101045.00
2022-12-19T20:20:06.014Z,101034.53
2022-12-19T20:22:32.725Z,101041.25
2022-12-19T20:24:59.559Z,101049.06
2022-12-19T20:27:26.481Z,101050.28
2022-12-19T20:29:53.188Z,101048.59
2022-12-19T20:32:19.987Z,101050.47
2022-12-19T20:34:46.807Z,101043.88
2022-12-19T20:37:15.064Z,101055.53
2022-12-19T20:39:44.942Z,101051.59
2022-12-19T20:42:11.829Z,101063.72
2022-12-19T20:44:38.594Z,101067.41
2022-12-19T20:47:05.508Z,101068.94
2022-12-19T20:49:32.294Z,101060.84
2022-12-19T20:52:02.348Z,101060.81
2022-12-19T20:54:29.093Z,101071.97
2022-12-19T20:56:55.827Z,101069.03
2022-12-19T20:59:22.700Z,101068.69
2022-12-19T21:01:49.437Z,101055.38
2022-12-19T21:04:16.550Z,101063.28
2022-12-19T21:06:43.763Z,101057.13
2022-12-19T21:09:15.488Z,101041.25
2022-12-19T21:11:42.198Z,101038.72
2022-12-19T21:14:11.566Z,101047.72
2022-12-19T21:16:38.579Z,101053.69
2022-12-19T21:19:05.562Z,101049.56
2022-12-19T21:21:32.406Z,101048.84
2022-12-19T21:24:00.794Z,101046.59
2022-12-19T21:26:27.755Z,101064.59
2022-12-19T21:28:57.775Z,101062.19
2022-12-19T21:31:27.074Z,101058.06
2022-12-19T21:33:55.893Z,101058.31
2022-12-19T21:36:24.595Z,101054.00
2022-12-19T21:38:54.622Z,101059.31
2022-12-19T21:41:22.419Z,101050.69
2022-12-19T21:43:53.727Z,101053.41
2022-12-19T21:46:23.973Z,101048.88
2022-12-19T21:48:53.774Z,101043.03
2022-12-19T21:51:22.208Z,101049.03
2022-12-19T21:53:53.787Z,101052.28
2022-12-19T21:56:29.089Z,101050.72
2022-12-19T21:58:59.426Z,101053.63
2022-12-19T22:01:27.569Z,101044.59
2022-12-19T22:04:02.343Z,101049.91
2022-12-19T22:06:31.794Z,101050.09
2022-12-19T22:09:00.139Z,101052.38
2022-12-19T22:11:28.202Z,101054.56
2022-12-19T22:13:55.408Z,101062.91
2022-12-19T22:16:22.942Z,101069.59
2022-12-19T22:18:52.782Z,101075.06
2022-12-19T22:21:19.864Z,101061.03
2022-12-19T22:23:46.641Z,101060.31
2022-12-19T22:26:16.419Z,101062.25
2022-12-19T22:28:46.895Z,101058.09
2022-12-19T22:31:20.292Z,101056.91
2022-12-19T22:33:49.100Z,101064.31
2022-12-19T22:36:17.516Z,101057.22
2022-12-19T22:38:49.185Z,101051.19
2022-12-19T22:41:17.549Z,101035.84
2022-12-19T22:43:45.342Z,101035.81
2022-12-19T22:46:21.017Z,101041.69
2022-12-19T22:48:49.741Z,101030.22
2022-12-19T22:51:19.283Z,101030.13
2022-12-19T22:53:47.553Z,101019.81
2022-12-19T22:56:17.970Z,101018.13
2022-12-19T22:58:47.156Z,101026.91
2022-12-19T23:01:27.335Z,101024.59
2022-12-19T23:03:56.045Z,101024.22
2022-12-19T23:06:25.490Z,101031.59
2022-12-19T23:08:52.658Z,101023.19
2022-12-19T23:11:42.886Z,101035.34
2022-12-19T23:14:13.267Z,101036.34
2022-12-19T23:16:40.004Z,101035.97
2022-12-19T23:19:08.976Z,101035.38
2022-12-19T23:21:35.672Z,101032.25
2022-12-19T23:24:02.558Z,101030.78
2022-12-19T23:26:32.480Z,101030.63
2022-12-19T23:29:02.222Z,101038.41
2022-12-19T23:31:30.303Z,101036.69
2022-12-19T23:33:57.812Z,101027.53
2022-12-19T23:37:09.155Z,101031.31
2022-12-19T23:39:13.906Z,101018.19
2022-12-19T23:41:40.636Z,101014.38
2022-12-19T23:44:08.440Z,101019.69
2022-12-19T23:46:35.683Z,101021.97
2022-12-19T23:49:02.514Z,101020.03
2022-12-19T23:51:30.102Z,101010.72
2022-12-19T23:53:57.533Z,101015.63
2022-12-19T23:56:27.322Z,101013.28
2022-12-19T23:58:54.356Z,101014.56
